Time;durP1;ratioP1;P1;durP2;ratioP2;P2;SDS_P1;SDS_P2;PMS_P1;PMS_P2;Temp;Humidity;BMP_temperature;BMP_pressure;BME280_temperature;BME280_humidity;BME280_pressure;Samples;Min_cycle;Max_cycle;Signal;HPM_P1;HPM_P2
2022/04/13 00:03:51;;;;;;;12.07;5.53;;;;;;;5.09;62.85;101065.06;18430382;32;20113;-64
2022/04/13 00:13:54;;;;;;;12.70;5.55;;;;;;;5.09;62.64;101071.09;18429940;32;20437;-64
2022/04/13 00:23:59;;;;;;;9.82;4.68;;;;;;;5.17;62.38;101078.25;18429015;32;20187;-64
2022/04/13 00:34:02;;;;;;;8.35;3.80;;;;;;;5.04;64.16;101090.81;18428924;32;20093;-64
2022/04/13 00:44:08;;;;;;;8.65;4.95;;;;;;;5.06;64.02;101091.72;18428366;32;20111;-64
2022/04/13 00:54:11;;;;;;;12.30;5.60;;;;;;;4.83;64.84;101088.41;18436628;32;20089;-64
2022/04/13 01:04:17;;;;;;;11.43;4.70;;;;;;;4.83;64.98;101083.22;18435627;32;20464;-64
2022/04/13 01:14:20;;;;;;;15.73;5.30;;;;;;;4.78;65.30;101088.25;18436003;32;20088;-64
2022/04/13 01:24:25;;;;;;;9.75;4.82;;;;;;;4.64;64.77;101084.31;18434905;32;20142;-64
2022/04/13 01:34:28;;;;;;;9.82;4.60;;;;;;;4.70;65.21;101077.66;18434741;32;20166;-64
2022/04/13 01:44:33;;;;;;;7.35;4.30;;;;;;;4.42;66.14;101106.88;18434514;32;20419;-64
2022/04/13 01:54:36;;;;;;;8.80;4.72;;;;;;;4.02;65.75;101116.66;18434128;32;20089;-64
2022/04/13 02:04:40;;;;;;;10.32;4.53;;;;;;;3.98;65.17;101126.03;18433248;32;20105;-64
2022/04/13 02:14:44;;;;;;;7.90;4.22;;;;;;;4.16;66.47;101127.50;18434491;32;20111;-64
2022/04/13 02:24:48;;;;;;;8.80;4.82;;;;;;;3.84;66.39;101129.81;18433395;32;20115;-64
2022/04/13 02:34:51;;;;;;;8.00;3.85;;;;;;;4.07;65.99;101135.81;18433061;32;20133;-64
2022/04/13 02:44:56;;;;;;;8.93;3.83;;;;;;;3.88;65.87;101121.34;18432646;32;20116;-63
2022/04/13 02:54:59;;;;;;;10.07;5.37;;;;;;;3.78;67.05;101125.28;18431807;32;20136;-64
2022/04/13 03:05:04;;;;;;;10.57;4.68;;;;;;;3.80;66.66;101133.13;18432165;32;20133;-64
2022/04/13 03:15:08;;;;;;;11.10;5.10;;;;;;;3.79;66.84;101134.81;18432035;32;20105;-63
2022/04/13 03:25:13;;;;;;;10.45;4.85;;;;;;;4.05;66.59;101137.47;18431591;32;20164;-64
2022/04/13 03:35:16;;;;;;;9.70;5.03;;;;;;;4.07;65.83;101138.41;18431436;32;20101;-64
2022/04/13 03:45:21;;;;;;;13.60;6.10;;;;;;;3.57;67.43;101158.94;18430821;32;20115;-64
2022/04/13 03:55:24;;;;;;;8.60;4.72;;;;;;;3.57;66.73;101169.25;18427438;32;20124;-64
2022/04/13 04:05:29;;;;;;;7.50;3.55;;;;;;;3.37;67.31;101168.44;18425501;32;20105;-63
2022/04/13 04:15:32;;;;;;;10.15;4.65;;;;;;;3.28;67.55;101174.16;18430178;32;20117;-63
2022/04/13 04:25:37;;;;;;;10.98;4.87;;;;;;;3.33;68.55;101177.81;18412768;32;20144;-63
2022/04/13 04:35:40;;;;;;;17.92;5.68;;;;;;;3.65;67.22;101188.50;18429057;32;20097;-64
2022/04/13 04:45:45;;;;;;;9.13;4.43;;;;;;;4.68;65.09;101189.66;18427498;32;20143;-64
2022/04/13 04:55:48;;;;;;;11.23;4.85;;;;;;;5.07;64.63;101196.09;18428349;32;20108;-64
2022/04/13 05:05:52;;;;;;;9.00;5.37;;;;;;;5.67;66.04;101204.94;18428979;32;20111;-64
2022/04/13 05:15:56;;;;;;;13.15;5.82;;;;;;;6.91;59.83;101220.53;18428792;32;20094;-64
2022/04/13 05:26:00;;;;;;;13.88;7.40;;;;;;;7.48;59.67;101214.16;18426228;32;20108;-64
2022/04/13 05:36:04;;;;;;;12.50;5.90;;;;;;;8.31;58.12;101232.44;18431406;32;20112;-65
2022/04/13 05:46:09;;;;;;;11.25;5.00;;;;;;;9.29;55.48;101235.97;18434685;32;20134;-65
2022/04/13 05:56:12;;;;;;;11.02;5.12;;;;;;;10.58;52.96;101245.59;18432905;32;20117;-65
2022/04/13 06:06:17;;;;;;;9.73;4.85;;;;;;;12.21;48.26;101239.09;18434468;32;20192;-65
2022/04/13 06:16:21;;;;;;;7.65;3.65;;;;;;;14.42;43.63;101246.94;18428523;32;20483;-66
2022/04/13 06:26:25;;;;;;;7.82;3.62;;;;;;;16.04;37.92;101255.41;18431991;32;20096;-66
2022/04/13 06:36:28;;;;;;;9.10;3.92;;;;;;;18.71;29.56;101242.16;18434890;32;20100;-66
2022/04/13 06:46:36;;;;;;;11.25;4.15;;;;;;;19.74;26.35;101252.91;18433542;32;20125;-66
2022/04/13 06:56:40;;;;;;;8.82;4.10;;;;;;;20.92;25.59;101244.22;18433236;32;20120;-66
2022/04/13 07:06:44;;;;;;;8.70;4.22;;;;;;;23.78;21.86;101230.78;18417128;32;20680;-67
2022/04/13 07:16:48;;;;;;;7.90;3.60;;;;;;;24.57;20.26;101238.81;18372523;32;20097;-66
2022/04/13 07:26:52;;;;;;;8.18;3.30;;;;;;;25.58;17.29;101241.88;18378078;32;20120;-68
2022/04/13 07:36:55;;;;;;;7.55;3.12;;;;;;;25.82;18.04;101249.53;18368164;32;20093;-66
2022/04/13 07:47:00;;;;;;;6.47;2.97;;;;;;;22.85;18.73;101259.50;18362916;32;157628;-66
2022/04/13 07:57:04;;;;;;;7.60;2.75;;;;;;;19.80;21.75;101256.25;18366909;32;20458;-66
2022/04/13 08:07:08;;;;;;;6.62;2.75;;;;;;;18.14;23.92;101266.28;18367722;32;20115;-66
2022/04/13 08:17:12;;;;;;;9.02;2.75;;;;;;;17.77;24.98;101269.59;18366962;32;20112;-65
2022/04/13 08:27:17;;;;;;;5.18;2.80;;;;;;;17.86;25.41;101269.44;18366135;32;20144;-65
2022/04/13 08:37:20;;;;;;;5.90;2.67;;;;;;;17.97;24.45;101276.28;18365334;32;20124;-65
2022/04/13 08:47:25;;;;;;;4.07;2.10;;;;;;;17.78;24.86;101262.53;18366200;32;20093;-66
2022/04/13 08:57:30;;;;;;;5.65;2.45;;;;;;;18.06;24.08;101257.63;18396867;32;20093;-66
2022/04/13 09:07:35;;;;;;;6.30;2.17;;;;;;;18.32;24.47;101252.72;18429756;32;20148;-66
2022/04/13 09:17:38;;;;;;;5.60;2.90;;;;;;;17.60;26.03;101251.44;18375574;32;20131;-66
2022/04/13 09:27:43;;;;;;;6.87;2.60;;;;;;;19.35;22.65;101243.31;18371994;32;20116;-66
2022/04/13 09:37:46;;;;;;;5.05;2.20;;;;;;;20.30;22.64;101225.75;18371627;32;20454;-66
2022/04/13 09:47:51;;;;;;;4.45;2.28;;;;;;;20.89;20.32;101216.00;18431911;32;20096;-66
2022/04/13 09:58:04;;;;;;;4.62;2.17;;;;;;;22.70;17.93;101220.22;18434838;32;20713;-66
2022/04/13 10:08:09;;;;;;;8.00;2.55;;;;;;;24.02;17.04;101203.09;18434114;32;20093;-67
2022/04/13 10:18:13;;;;;;;6.62;2.58;;;;;;;24.12;16.36;101193.75;18431954;32;20437;-66
2022/04/13 10:28:23;;;;;;;6.93;3.10;;;;;;;23.17;18.13;101186.34;18432411;32;20101;-66
2022/04/13 10:38:26;;;;;;;8.63;3.30;;;;;;;21.92;20.25;101188.59;18432078;32;20123;-66
2022/04/13 10:48:32;;;;;;;5.90;2.90;;;;;;;20.86;20.39;101178.06;18432756;32;20147;-66
2022/04/13 10:58:44;;;;;;;7.32;2.97;;;;;;;20.23;21.98;101173.81;18433478;32;20114;-66
2022/04/13 11:08:51;;;;;;;7.57;2.95;;;;;;;19.93;22.57;101164.09;18429539;32;20118;-65
2022/04/13 11:19:20;;;;;;;8.35;2.92;;;;;;;20.52;22.29;101156.13;18401400;32;20101;-66
2022/04/13 11:29:33;;;;;;;8.75;3.83;;;;;;;20.64;23.15;101138.97;18397287;32;20136;-66
2022/04/13 11:39:54;;;;;;;9.63;4.00;;;;;;;20.48;21.04;101141.22;18427539;32;20140;-66
2022/04/13 11:50:02;;;;;;;9.50;3.72;;;;;;;19.61;22.51;101131.44;18432105;32;20092;-66
2022/04/13 12:00:06;;;;;;;9.55;3.95;;;;;;;19.98;21.98;101121.56;18430195;32;20380;-66
2022/04/13 12:10:11;;;;;;;8.05;3.37;;;;;;;20.05;23.29;101111.63;18431685;32;20343;-66
2022/04/13 12:20:28;;;;;;;10.40;3.95;;;;;;;19.77;22.93;101096.53;18426758;32;20107;-66
2022/04/13 12:30:32;;;;;;;13.15;4.62;;;;;;;19.52;22.50;101092.81;18428021;32;20102;-66
2022/04/13 12:40:36;;;;;;;10.07;4.53;;;;;;;19.47;23.87;101076.22;18384393;32;20096;-66
2022/04/13 12:50:55;;;;;;;10.55;3.60;;;;;;;20.27;23.31;101061.47;18385832;32;20129;-65
2022/04/13 13:00:58;;;;;;;9.55;3.75;;;;;;;20.78;22.70;101043.00;18385543;32;20097;-66
2022/04/13 13:11:03;;;;;;;8.70;3.90;;;;;;;21.04;20.44;101038.56;18416736;32;20105;-65
2022/04/13 13:21:06;;;;;;;9.57;4.07;;;;;;;20.71;21.00;101022.91;18434158;32;20109;-67
2022/04/13 13:31:13;;;;;;;10.38;4.10;;;;;;;20.84;20.34;101008.31;18447071;32;20097;-66
2022/04/13 13:41:21;;;;;;;10.65;4.30;;;;;;;20.61;22.16;101009.97;18444907;32;20171;-67
2022/04/13 13:51:28;;;;;;;9.23;3.70;;;;;;;20.84;22.26;100995.03;18428994;32;20127;-66
2022/04/13 14:01:32;;;;;;;11.98;4.07;;;;;;;20.92;21.53;100990.31;18384889;32;20101;-65
2022/04/13 14:11:37;;;;;;;8.30;3.85;;;;;;;21.03;21.71;100974.03;18396411;32;20150;-65
2022/04/13 14:21:41;;;;;;;10.95;4.12;;;;;;;21.38;21.28;100970.94;18370352;32;20131;-66
2022/04/13 14:31:45;;;;;;;9.85;4.05;;;;;;;19.58;21.96;100964.66;18371548;32;20093;-66
2022/04/13 14:41:49;;;;;;;9.13;3.53;;;;;;;21.07;21.62;100965.00;18356101;32;20104;-66
2022/04/13 14:51:54;;;;;;;9.35;3.65;;;;;;;20.34;20.52;100962.25;18354510;32;20366;-66
2022/04/13 15:01:57;;;;;;;12.70;4.12;;;;;;;20.52;20.50;100958.09;18433781;32;20170;-65
2022/04/13 15:12:02;;;;;;;10.32;3.85;;;;;;;20.98;20.18;100951.22;18431970;32;20519;-66
2022/04/13 15:22:05;;;;;;;11.20;4.05;;;;;;;21.12;20.57;100954.22;18433968;32;20109;-66
2022/04/13 15:32:10;;;;;;;10.68;3.87;;;;;;;21.15;20.33;100954.12;18432904;32;20105;-65
2022/04/13 15:42:13;;;;;;;8.93;3.90;;;;;;;20.99;21.38;100923.78;18417079;32;20432;-66
2022/04/13 15:52:26;;;;;;;11.35;4.20;;;;;;;20.63;20.38;100922.34;18430514;32;20089;-66
2022/04/13 16:02:30;;;;;;;9.52;3.28;;;;;;;20.48;21.11;100935.25;18417482;32;20115;-66
2022/04/13 16:12:34;;;;;;;12.77;3.92;;;;;;;20.60;21.72;100933.97;18429853;32;20115;-66
2022/04/13 16:22:38;;;;;;;8.13;3.53;;;;;;;20.24;22.02;100942.28;18429843;32;20119;-65
2022/04/13 16:32:43;;;;;;;7.32;2.92;;;;;;;19.94;23.05;100939.75;18416043;32;20491;-66
2022/04/13 16:42:47;;;;;;;7.95;3.08;;;;;;;19.81;23.09;100948.03;18429662;32;20085;-65
2022/04/13 16:52:52;;;;;;;7.70;2.85;;;;;;;19.44;25.18;100954.50;18428728;32;20144;-66
2022/04/13 17:02:55;;;;;;;4.65;2.10;;;;;;;19.19;27.00;100957.00;18428510;32;20107;-66
2022/04/13 17:13:00;;;;;;;5.93;2.53;;;;;;;18.80;28.16;100976.59;18427839;32;20389;-66
2022/04/13 17:23:04;;;;;;;6.87;2.70;;;;;;;18.24;29.82;100963.06;18414104;32;20092;-63
2022/04/13 17:33:09;;;;;;;7.50;2.80;;;;;;;17.68;30.40;100974.06;18433528;32;20081;-63
2022/04/13 17:43:12;;;;;;;4.62;2.05;;;;;;;17.10;32.57;100975.25;18421267;32;20093;-63
2022/04/13 17:53:18;;;;;;;6.85;2.85;;;;;;;16.33;36.12;100974.91;18421958;32;20093;-63
2022/04/13 18:03:21;;;;;;;5.87;2.47;;;;;;;15.78;36.90;100980.13;18434905;32;20085;-63
2022/04/13 18:13:26;;;;;;;14.23;4.18;;;;;;;15.18;37.59;100987.91;18419307;32;20129;-63
2022/04/13 18:23:29;;;;;;;10.77;4.22;;;;;;;14.71;38.30;100990.16;18427640;32;20116;-63
2022/04/13 18:33:38;;;;;;;8.00;3.17;;;;;;;14.63;36.85;101005.12;18418575;32;20097;-63
2022/04/13 18:43:41;;;;;;;6.78;2.70;;;;;;;14.27;37.66;101018.53;18419198;32;20084;-63
2022/04/13 18:53:46;;;;;;;16.62;6.30;;;;;;;13.86;39.53;101038.97;18405638;32;20165;-63
2022/04/13 19:03:49;;;;;;;8.00;3.47;;;;;;;13.48;41.28;101051.38;18368525;32;20101;-63
2022/04/13 19:13:55;;;;;;;6.45;3.05;;;;;;;12.90;43.58;101061.97;18368277;32;20184;-63
2022/04/13 19:23:58;;;;;;;6.95;3.10;;;;;;;12.73;44.18;101066.34;18391204;32;20129;-63
2022/04/13 19:34:03;;;;;;;9.35;4.03;;;;;;;12.25;44.68;101064.59;18414702;32;20655;-63
2022/04/13 19:44:06;;;;;;;9.13;3.55;;;;;;;12.27;44.95;101064.56;18428483;32;20092;-62
2022/04/13 19:54:11;;;;;;;11.12;4.18;;;;;;;11.92;45.37;101063.59;18429817;32;20092;-62
2022/04/13 20:04:14;;;;;;;33.80;11.32;;;;;;;11.46;46.90;101075.62;18415986;32;20088;-63
2022/04/13 20:14:24;;;;;;;6.32;3.05;;;;;;;11.29;47.67;101083.38;18424715;32;20143;-63
2022/04/13 20:24:28;;;;;;;12.43;4.18;;;;;;;11.10;47.30;101083.25;18431890;32;20096;-62
2022/04/13 20:34:32;;;;;;;16.52;5.97;;;;;;;10.76;47.28;101087.38;18416357;32;20190;-63
2022/04/13 20:44:36;;;;;;;27.70;10.43;;;;;;;10.64;48.91;101099.47;18429477;32;20123;-62
2022/04/13 20:54:41;;;;;;;26.00;10.10;;;;;;;10.49;50.10;101102.81;18415504;32;20432;-62
2022/04/13 21:04:44;;;;;;;23.98;10.75;;;;;;;10.51;50.44;101093.25;18418230;32;20119;-63
2022/04/13 21:14:58;;;;;;;17.62;8.68;;;;;;;10.19;51.03;101105.94;18436473;32;20112;-62
2022/04/13 21:25:06;;;;;;;15.70;6.07;;;;;;;10.08;52.44;101103.22;18436886;32;20092;-62
2022/04/13 21:35:11;;;;;;;14.60;6.35;;;;;;;9.87;52.27;101106.47;18436368;32;20149;-63
2022/04/13 21:45:18;;;;;;;12.23;6.12;;;;;;;9.38;54.30;101107.56;18421831;32;20115;-63
2022/04/13 21:55:22;;;;;;;19.62;7.28;;;;;;;9.38;54.26;101115.37;18435791;32;20089;-64
2022/04/13 22:05:26;;;;;;;14.93;6.43;;;;;;;9.16;54.00;101112.47;18421418;32;20101;-63
2022/04/13 22:15:30;;;;;;;15.00;6.85;;;;;;;9.29;55.20;101118.72;18421402;32;20101;-63
2022/04/13 22:25:34;;;;;;;15.32;6.87;;;;;;;9.10;55.31;101122.78;18434778;32;20085;-63
2022/04/13 22:35:39;;;;;;;16.33;7.62;;;;;;;8.89;56.24;101139.81;18420507;32;20428;-63
2022/04/13 22:45:42;;;;;;;15.23;7.00;;;;;;;8.64;55.86;101135.91;18434298;32;20084;-63
2022/04/13 22:55:47;;;;;;;19.00;9.20;;;;;;;8.63;55.74;101132.47;18420425;32;20464;-63
2022/04/13 23:05:50;;;;;;;16.75;7.55;;;;;;;8.47;56.25;101132.13;18419480;32;20124;-63
2022/04/13 23:15:55;;;;;;;15.80;7.75;;;;;;;8.28;58.17;101137.84;18418997;32;20107;-63
2022/04/13 23:25:58;;;;;;;17.50;8.68;;;;;;;8.06;59.34;101132.22;18431960;32;20097;-63
2022/04/13 23:36:05;;;;;;;16.92;7.57;;;;;;;8.01;59.95;101128.66;18418665;32;20105;-63
2022/04/13 23:46:08;;;;;;;18.83;8.48;;;;;;;7.80;60.01;101122.19;18432644;32;20433;-63
2022/04/13 23:56:13;;;;;;;14.30;6.57;;;;;;;7.67;60.10;101122.75;18419439;32;20101;-63
